sensor_id;sensor_type;location;lat;lon;timestamp;P1;durP1;ratioP1;P2;durP2;ratioP2
10114;SDS011;5097;43.260;27.812;2023-01-05T00:01:23;27.17;;;19.10;;
10114;SDS011;5097;43.260;27.812;2023-01-05T00:04:07;23.17;;;19.47;;
10114;SDS011;5097;43.260;27.812;2023-01-05T00:06:52;23.60;;;18.67;;
10114;SDS011;5097;43.260;27.812;2023-01-05T00:09:37;22.47;;;18.40;;
10114;SDS011;5097;43.260;27.812;2023-01-05T00:12:21;22.83;;;18.83;;
10114;SDS011;5097;43.260;27.812;2023-01-05T00:15:22;22.10;;;18.23;;
10114;SDS011;5097;43.260;27.812;2023-01-05T00:18:24;26.37;;;20.60;;
10114;SDS011;5097;43.260;27.812;2023-01-05T00:21:25;20.90;;;18.63;;
10114;SDS011;5097;43.260;27.812;2023-01-05T00:24:28;26.30;;;18.57;;
10114;SDS011;5097;43.260;27.812;2023-01-05T00:27:13;22.50;;;17.93;;
10114;SDS011;5097;43.260;27.812;2023-01-05T00:29:57;20.63;;;18.37;;
10114;SDS011;5097;43.260;27.812;2023-01-05T00:32:41;20.83;;;18.20;;
10114;SDS011;5097;43.260;27.812;2023-01-05T00:35:26;21.97;;;18.30;;
10114;SDS011;5097;43.260;27.812;2023-01-05T00:38:12;23.53;;;18.20;;
10114;SDS011;5097;43.260;27.812;2023-01-05T00:40:57;21.60;;;17.47;;
10114;SDS011;5097;43.260;27.812;2023-01-05T00:43:41;21.47;;;17.67;;
10114;SDS011;5097;43.260;27.812;2023-01-05T00:46:25;20.77;;;16.93;;
10114;SDS011;5097;43.260;27.812;2023-01-05T00:49:09;23.23;;;17.90;;
10114;SDS011;5097;43.260;27.812;2023-01-05T00:51:53;22.80;;;18.03;;
10114;SDS011;5097;43.260;27.812;2023-01-05T00:54:37;22.67;;;17.77;;
10114;SDS011;5097;43.260;27.812;2023-01-05T00:57:23;20.93;;;17.90;;
10114;SDS011;5097;43.260;27.812;2023-01-05T01:00:10;23.17;;;17.10;;
10114;SDS011;5097;43.260;27.812;2023-01-05T01:02:57;18.90;;;16.27;;
10114;SDS011;5097;43.260;27.812;2023-01-05T01:05:42;19.23;;;15.87;;
10114;SDS011;5097;43.260;27.812;2023-01-05T01:08:26;20.87;;;16.77;;
10114;SDS011;5097;43.260;27.812;2023-01-05T01:11:10;19.13;;;16.63;;
10114;SDS011;5097;43.260;27.812;2023-01-05T01:13:56;20.43;;;16.87;;
10114;SDS011;5097;43.260;27.812;2023-01-05T01:16:40;24.30;;;18.33;;
10114;SDS011;5097;43.260;27.812;2023-01-05T01:19:25;19.13;;;16.50;;
10114;SDS011;5097;43.260;27.812;2023-01-05T01:22:09;20.80;;;18.10;;
10114;SDS011;5097;43.260;27.812;2023-01-05T01:24:53;22.27;;;17.60;;
10114;SDS011;5097;43.260;27.812;2023-01-05T01:27:37;20.67;;;17.30;;
10114;SDS011;5097;43.260;27.812;2023-01-05T01:30:23;22.27;;;16.93;;
10114;SDS011;5097;43.260;27.812;2023-01-05T01:33:07;21.27;;;16.80;;
10114;SDS011;5097;43.260;27.812;2023-01-05T01:35:52;27.90;;;20.93;;
10114;SDS011;5097;43.260;27.812;2023-01-05T01:38:36;19.90;;;16.77;;
10114;SDS011;5097;43.260;27.812;2023-01-05T01:41:20;22.73;;;19.43;;
10114;SDS011;5097;43.260;27.812;2023-01-05T01:50:30;30.20;;;21.30;;
10114;SDS011;5097;43.260;27.812;2023-01-05T01:53:17;29.33;;;19.60;;
10114;SDS011;5097;43.260;27.812;2023-01-05T01:56:06;23.50;;;19.10;;
10114;SDS011;5097;43.260;27.812;2023-01-05T01:58:53;23.83;;;19.03;;
10114;SDS011;5097;43.260;27.812;2023-01-05T02:01:38;27.93;;;19.17;;
10114;SDS011;5097;43.260;27.812;2023-01-05T02:04:24;24.37;;;19.80;;
10114;SDS011;5097;43.260;27.812;2023-01-05T02:07:09;29.67;;;19.83;;
10114;SDS011;5097;43.260;27.812;2023-01-05T02:09:57;25.93;;;19.77;;
10114;SDS011;5097;43.260;27.812;2023-01-05T02:12:45;28.03;;;20.70;;
10114;SDS011;5097;43.260;27.812;2023-01-05T02:15:42;24.10;;;19.17;;
10114;SDS011;5097;43.260;27.812;2023-01-05T02:18:45;25.97;;;20.17;;
10114;SDS011;5097;43.260;27.812;2023-01-05T02:21:45;25.60;;;20.03;;
10114;SDS011;5097;43.260;27.812;2023-01-05T02:24:48;27.47;;;18.47;;
10114;SDS011;5097;43.260;27.812;2023-01-05T02:27:49;24.73;;;17.93;;
10114;SDS011;5097;43.260;27.812;2023-01-05T02:30:51;25.53;;;18.20;;
10114;SDS011;5097;43.260;27.812;2023-01-05T02:33:54;22.13;;;19.00;;
10114;SDS011;5097;43.260;27.812;2023-01-05T02:36:50;23.93;;;18.40;;
10114;SDS011;5097;43.260;27.812;2023-01-05T02:39:40;25.30;;;18.93;;
10114;SDS011;5097;43.260;27.812;2023-01-05T02:42:29;25.83;;;19.13;;
10114;SDS011;5097;43.260;27.812;2023-01-05T02:45:17;22.33;;;17.47;;
10114;SDS011;5097;43.260;27.812;2023-01-05T02:48:03;25.17;;;18.83;;
10114;SDS011;5097;43.260;27.812;2023-01-05T02:50:48;22.80;;;18.03;;
10114;SDS011;5097;43.260;27.812;2023-01-05T02:53:39;22.87;;;17.57;;
10114;SDS011;5097;43.260;27.812;2023-01-05T02:56:28;20.53;;;17.20;;
10114;SDS011;5097;43.260;27.812;2023-01-05T02:59:19;22.17;;;18.87;;
10114;SDS011;5097;43.260;27.812;2023-01-05T03:02:09;27.43;;;19.57;;
10114;SDS011;5097;43.260;27.812;2023-01-05T03:04:59;25.43;;;18.80;;
10114;SDS011;5097;43.260;27.812;2023-01-05T03:07:46;27.50;;;19.13;;
10114;SDS011;5097;43.260;27.812;2023-01-05T03:10:34;30.17;;;21.20;;
10114;SDS011;5097;43.260;27.812;2023-01-05T03:13:42;26.73;;;18.90;;
10114;SDS011;5097;43.260;27.812;2023-01-05T03:16:34;23.87;;;19.70;;
10114;SDS011;5097;43.260;27.812;2023-01-05T03:19:21;22.57;;;19.10;;
10114;SDS011;5097;43.260;27.812;2023-01-05T03:22:26;28.63;;;20.63;;
10114;SDS011;5097;43.260;27.812;2023-01-05T03:25:30;127.50;;;79.47;;
10114;SDS011;5097;43.260;27.812;2023-01-05T03:28:36;66.60;;;46.80;;
10114;SDS011;5097;43.260;27.812;2023-01-05T03:31:46;35.03;;;26.63;;
10114;SDS011;5097;43.260;27.812;2023-01-05T03:34:52;33.33;;;23.27;;
10114;SDS011;5097;43.260;27.812;2023-01-05T03:38:05;29.60;;;21.37;;
10114;SDS011;5097;43.260;27.812;2023-01-05T03:40:59;28.00;;;21.33;;
10114;SDS011;5097;43.260;27.812;2023-01-05T03:43:52;29.43;;;21.33;;
10114;SDS011;5097;43.260;27.812;2023-01-05T03:46:38;25.93;;;20.07;;
10114;SDS011;5097;43.260;27.812;2023-01-05T03:49:24;25.70;;;19.83;;
10114;SDS011;5097;43.260;27.812;2023-01-05T03:52:07;25.17;;;19.93;;
10114;SDS011;5097;43.260;27.812;2023-01-05T03:54:56;25.83;;;20.17;;
10114;SDS011;5097;43.260;27.812;2023-01-05T03:57:40;25.90;;;20.23;;
10114;SDS011;5097;43.260;27.812;2023-01-05T04:00:24;28.20;;;21.93;;
10114;SDS011;5097;43.260;27.812;2023-01-05T04:03:16;28.60;;;19.73;;
10114;SDS011;5097;43.260;27.812;2023-01-05T04:06:00;29.03;;;20.77;;
10114;SDS011;5097;43.260;27.812;2023-01-05T04:08:46;26.07;;;20.83;;
10114;SDS011;5097;43.260;27.812;2023-01-05T04:11:31;38.67;;;24.63;;
10114;SDS011;5097;43.260;27.812;2023-01-05T04:14:19;32.03;;;23.63;;
10114;SDS011;5097;43.260;27.812;2023-01-05T04:17:03;33.67;;;22.13;;
10114;SDS011;5097;43.260;27.812;2023-01-05T04:19:47;40.53;;;24.67;;
10114;SDS011;5097;43.260;27.812;2023-01-05T04:22:32;37.03;;;24.43;;
10114;SDS011;5097;43.260;27.812;2023-01-05T04:25:16;38.03;;;25.50;;
10114;SDS011;5097;43.260;27.812;2023-01-05T04:28:02;31.40;;;24.60;;
10114;SDS011;5097;43.260;27.812;2023-01-05T04:30:48;35.70;;;24.73;;
10114;SDS011;5097;43.260;27.812;2023-01-05T04:33:33;42.73;;;25.13;;
10114;SDS011;5097;43.260;27.812;2023-01-05T04:36:17;34.73;;;24.83;;
10114;SDS011;5097;43.260;27.812;2023-01-05T04:39:02;42.73;;;26.60;;
10114;SDS011;5097;43.260;27.812;2023-01-05T04:41:48;36.60;;;25.07;;
10114;SDS011;5097;43.260;27.812;2023-01-05T04:44:35;43.50;;;26.37;;
10114;SDS011;5097;43.260;27.812;2023-01-05T04:47:20;43.00;;;29.57;;
10114;SDS011;5097;43.260;27.812;2023-01-05T04:50:06;42.87;;;26.50;;
10114;SDS011;5097;43.260;27.812;2023-01-05T04:52:52;45.60;;;29.17;;
10114;SDS011;5097;43.260;27.812;2023-01-05T04:55:36;41.53;;;28.57;;
10114;SDS011;5097;43.260;27.812;2023-01-05T04:58:20;41.77;;;27.40;;
10114;SDS011;5097;43.260;27.812;2023-01-05T05:01:09;43.50;;;30.17;;
10114;SDS011;5097;43.260;27.812;2023-01-05T05:03:54;40.30;;;27.57;;
10114;SDS011;5097;43.260;27.812;2023-01-05T05:06:40;52.77;;;30.67;;
10114;SDS011;5097;43.260;27.812;2023-01-05T05:09:23;51.07;;;30.47;;
10114;SDS011;5097;43.260;27.812;2023-01-05T05:12:08;40.67;;;28.37;;
10114;SDS011;5097;43.260;27.812;2023-01-05T05:14:53;46.13;;;31.57;;
10114;SDS011;5097;43.260;27.812;2023-01-05T05:17:39;45.57;;;30.57;;
10114;SDS011;5097;43.260;27.812;2023-01-05T05:20:26;44.73;;;29.70;;
10114;SDS011;5097;43.260;27.812;2023-01-05T05:23:10;42.73;;;28.27;;
10114;SDS011;5097;43.260;27.812;2023-01-05T05:25:54;39.10;;;27.20;;
10114;SDS011;5097;43.260;27.812;2023-01-05T05:28:39;39.97;;;26.73;;
10114;SDS011;5097;43.260;27.812;2023-01-05T05:31:23;43.87;;;27.40;;
10114;SDS011;5097;43.260;27.812;2023-01-05T05:34:08;43.27;;;27.53;;
10114;SDS011;5097;43.260;27.812;2023-01-05T05:36:52;43.53;;;29.17;;
10114;SDS011;5097;43.260;27.812;2023-01-05T05:39:35;39.23;;;26.90;;
10114;SDS011;5097;43.260;27.812;2023-01-05T05:42:19;49.27;;;29.33;;
10114;SDS011;5097;43.260;27.812;2023-01-05T05:45:04;43.27;;;29.50;;
10114;SDS011;5097;43.260;27.812;2023-01-05T05:47:48;50.63;;;30.93;;
10114;SDS011;5097;43.260;27.812;2023-01-05T05:50:33;45.80;;;29.90;;
10114;SDS011;5097;43.260;27.812;2023-01-05T05:53:20;44.03;;;29.87;;
10114;SDS011;5097;43.260;27.812;2023-01-05T05:56:04;45.53;;;30.13;;
10114;SDS011;5097;43.260;27.812;2023-01-05T05:58:48;41.00;;;28.93;;
10114;SDS011;5097;43.260;27.812;2023-01-05T06:01:38;43.30;;;30.00;;
10114;SDS011;5097;43.260;27.812;2023-01-05T06:04:22;39.57;;;28.93;;
10114;SDS011;5097;43.260;27.812;2023-01-05T06:07:08;40.47;;;29.17;;
10114;SDS011;5097;43.260;27.812;2023-01-05T06:09:52;42.93;;;29.50;;
10114;SDS011;5097;43.260;27.812;2023-01-05T06:12:36;44.60;;;30.27;;
10114;SDS011;5097;43.260;27.812;2023-01-05T06:15:20;46.37;;;32.23;;
10114;SDS011;5097;43.260;27.812;2023-01-05T06:18:04;52.83;;;32.23;;
10114;SDS011;5097;43.260;27.812;2023-01-05T06:20:48;48.63;;;32.50;;
10114;SDS011;5097;43.260;27.812;2023-01-05T06:23:38;47.80;;;34.63;;
10114;SDS011;5097;43.260;27.812;2023-01-05T06:26:22;46.77;;;31.47;;
10114;SDS011;5097;43.260;27.812;2023-01-05T06:29:06;45.03;;;32.43;;
10114;SDS011;5097;43.260;27.812;2023-01-05T06:31:50;46.13;;;31.27;;
10114;SDS011;5097;43.260;27.812;2023-01-05T06:34:34;51.40;;;34.23;;
10114;SDS011;5097;43.260;27.812;2023-01-05T06:37:17;51.40;;;36.83;;
10114;SDS011;5097;43.260;27.812;2023-01-05T06:40:03;47.93;;;33.87;;
10114;SDS011;5097;43.260;27.812;2023-01-05T06:42:47;50.53;;;34.50;;
10114;SDS011;5097;43.260;27.812;2023-01-05T06:46:30;45.50;;;32.77;;
10114;SDS011;5097;43.260;27.812;2023-01-05T06:50:12;50.47;;;34.53;;
10114;SDS011;5097;43.260;27.812;2023-01-05T06:53:55;49.13;;;32.90;;
10114;SDS011;5097;43.260;27.812;2023-01-05T06:57:38;51.93;;;38.00;;
10114;SDS011;5097;43.260;27.812;2023-01-05T07:01:21;46.67;;;35.10;;
10114;SDS011;5097;43.260;27.812;2023-01-05T07:05:03;51.13;;;39.70;;
10114;SDS011;5097;43.260;27.812;2023-01-05T07:08:53;51.10;;;37.90;;
10114;SDS011;5097;43.260;27.812;2023-01-05T07:12:36;51.57;;;36.93;;
10114;SDS011;5097;43.260;27.812;2023-01-05T07:16:20;40.37;;;30.13;;
10114;SDS011;5097;43.260;27.812;2023-01-05T07:20:02;46.97;;;33.87;;
10114;SDS011;5097;43.260;27.812;2023-01-05T07:23:44;39.33;;;27.17;;
10114;SDS011;5097;43.260;27.812;2023-01-05T07:27:27;39.60;;;27.87;;
10114;SDS011;5097;43.260;27.812;2023-01-05T07:31:10;41.63;;;29.80;;
10114;SDS011;5097;43.260;27.812;2023-01-05T07:34:53;38.67;;;27.93;;
10114;SDS011;5097;43.260;27.812;2023-01-05T07:38:35;40.07;;;29.17;;
10114;SDS011;5097;43.260;27.812;2023-01-05T07:42:17;47.67;;;31.23;;
10114;SDS011;5097;43.260;27.812;2023-01-05T07:46:00;44.40;;;33.17;;
10114;SDS011;5097;43.260;27.812;2023-01-05T07:49:44;49.77;;;33.77;;
10114;SDS011;5097;43.260;27.812;2023-01-05T07:53:26;50.67;;;36.53;;
10114;SDS011;5097;43.260;27.812;2023-01-05T07:57:09;45.13;;;34.70;;
10114;SDS011;5097;43.260;27.812;2023-01-05T08:00:56;50.20;;;37.47;;
10114;SDS011;5097;43.260;27.812;2023-01-05T08:04:40;54.47;;;40.00;;
10114;SDS011;5097;43.260;27.812;2023-01-05T08:08:22;58.23;;;41.13;;
10114;SDS011;5097;43.260;27.812;2023-01-05T08:12:21;56.60;;;39.97;;
10114;SDS011;5097;43.260;27.812;2023-01-05T08:16:36;37.80;;;26.93;;
10114;SDS011;5097;43.260;27.812;2023-01-05T08:20:20;32.50;;;25.77;;
10114;SDS011;5097;43.260;27.812;2023-01-05T08:24:02;33.87;;;25.80;;
10114;SDS011;5097;43.260;27.812;2023-01-05T08:27:44;29.10;;;24.17;;
10114;SDS011;5097;43.260;27.812;2023-01-05T08:31:27;36.97;;;28.50;;
10114;SDS011;5097;43.260;27.812;2023-01-05T08:35:10;34.80;;;25.33;;
10114;SDS011;5097;43.260;27.812;2023-01-05T08:38:55;33.70;;;25.73;;
10114;SDS011;5097;43.260;27.812;2023-01-05T08:42:38;33.10;;;24.80;;
10114;SDS011;5097;43.260;27.812;2023-01-05T08:46:21;33.17;;;23.03;;
10114;SDS011;5097;43.260;27.812;2023-01-05T08:50:09;33.97;;;25.60;;
10114;SDS011;5097;43.260;27.812;2023-01-05T08:53:53;34.17;;;24.07;;
10114;SDS011;5097;43.260;27.812;2023-01-05T08:57:36;32.30;;;24.60;;
10114;SDS011;5097;43.260;27.812;2023-01-05T09:01:18;33.83;;;25.47;;
10114;SDS011;5097;43.260;27.812;2023-01-05T09:05:07;36.30;;;24.67;;
10114;SDS011;5097;43.260;27.812;2023-01-05T09:08:54;37.03;;;24.97;;
10114;SDS011;5097;43.260;27.812;2023-01-05T09:12:37;36.57;;;24.23;;
10114;SDS011;5097;43.260;27.812;2023-01-05T09:16:20;38.10;;;27.20;;
10114;SDS011;5097;43.260;27.812;2023-01-05T09:20:03;71.97;;;47.97;;
10114;SDS011;5097;43.260;27.812;2023-01-05T09:23:47;122.03;;;74.50;;
10114;SDS011;5097;43.260;27.812;2023-01-05T09:27:31;44.20;;;30.50;;
10114;SDS011;5097;43.260;27.812;2023-01-05T09:31:14;42.87;;;32.60;;
10114;SDS011;5097;43.260;27.812;2023-01-05T09:34:57;39.60;;;30.00;;
10114;SDS011;5097;43.260;27.812;2023-01-05T09:38:39;32.93;;;25.23;;
10114;SDS011;5097;43.260;27.812;2023-01-05T09:42:23;40.63;;;27.83;;
10114;SDS011;5097;43.260;27.812;2023-01-05T09:46:10;37.27;;;27.90;;
10114;SDS011;5097;43.260;27.812;2023-01-05T09:49:57;34.17;;;26.90;;
10114;SDS011;5097;43.260;27.812;2023-01-05T09:53:40;38.63;;;27.47;;
10114;SDS011;5097;43.260;27.812;2023-01-05T09:57:25;37.87;;;30.03;;
10114;SDS011;5097;43.260;27.812;2023-01-05T10:01:11;40.10;;;33.67;;
10114;SDS011;5097;43.260;27.812;2023-01-05T10:05:01;41.03;;;27.27;;
10114;SDS011;5097;43.260;27.812;2023-01-05T10:08:45;33.30;;;25.77;;
10114;SDS011;5097;43.260;27.812;2023-01-05T10:12:33;30.20;;;22.63;;
10114;SDS011;5097;43.260;27.812;2023-01-05T10:16:21;31.13;;;23.63;;
10114;SDS011;5097;43.260;27.812;2023-01-05T10:20:26;28.47;;;22.83;;
10114;SDS011;5097;43.260;27.812;2023-01-05T10:24:20;29.50;;;20.83;;
10114;SDS011;5097;43.260;27.812;2023-01-05T10:28:12;25.03;;;19.97;;
10114;SDS011;5097;43.260;27.812;2023-01-05T10:32:04;23.30;;;19.10;;
10114;SDS011;5097;43.260;27.812;2023-01-05T10:36:28;23.67;;;18.80;;
10114;SDS011;5097;43.260;27.812;2023-01-05T10:40:42;25.63;;;19.90;;
10114;SDS011;5097;43.260;27.812;2023-01-05T10:44:37;27.37;;;20.83;;
10114;SDS011;5097;43.260;27.812;2023-01-05T10:48:43;23.43;;;19.63;;
10114;SDS011;5097;43.260;27.812;2023-01-05T10:52:27;24.57;;;18.00;;
10114;SDS011;5097;43.260;27.812;2023-01-05T10:56:12;26.83;;;20.13;;
10114;SDS011;5097;43.260;27.812;2023-01-05T11:00:20;24.60;;;19.37;;
10114;SDS011;5097;43.260;27.812;2023-01-05T11:04:07;27.63;;;18.83;;
10114;SDS011;5097;43.260;27.812;2023-01-05T11:08:02;25.13;;;19.20;;
10114;SDS011;5097;43.260;27.812;2023-01-05T11:11:53;25.67;;;20.30;;
10114;SDS011;5097;43.260;27.812;2023-01-05T11:15:40;27.17;;;21.27;;
10114;SDS011;5097;43.260;27.812;2023-01-05T11:19:29;26.23;;;18.43;;
10114;SDS011;5097;43.260;27.812;2023-01-05T11:23:20;124.03;;;59.73;;
10114;SDS011;5097;43.260;27.812;2023-01-05T11:27:21;29.90;;;21.23;;
10114;SDS011;5097;43.260;27.812;2023-01-05T11:31:05;23.77;;;17.73;;
10114;SDS011;5097;43.260;27.812;2023-01-05T11:34:52;32.23;;;23.23;;
10114;SDS011;5097;43.260;27.812;2023-01-05T11:38:34;23.90;;;20.00;;
10114;SDS011;5097;43.260;27.812;2023-01-05T11:42:18;28.33;;;19.90;;
10114;SDS011;5097;43.260;27.812;2023-01-05T11:46:02;38.87;;;27.30;;
10114;SDS011;5097;43.260;27.812;2023-01-05T11:49:48;29.17;;;19.67;;
10114;SDS011;5097;43.260;27.812;2023-01-05T11:53:36;31.30;;;22.03;;
10114;SDS011;5097;43.260;27.812;2023-01-05T11:57:20;36.03;;;21.13;;
10114;SDS011;5097;43.260;27.812;2023-01-05T12:05:34;19.90;;;16.77;;
10114;SDS011;5097;43.260;27.812;2023-01-05T12:09:35;22.07;;;16.93;;
10114;SDS011;5097;43.260;27.812;2023-01-05T12:13:45;70.03;;;41.77;;
10114;SDS011;5097;43.260;27.812;2023-01-05T12:17:42;24.83;;;17.77;;
10114;SDS011;5097;43.260;27.812;2023-01-05T12:21:40;48.73;;;31.43;;
10114;SDS011;5097;43.260;27.812;2023-01-05T12:25:42;46.97;;;31.93;;
10114;SDS011;5097;43.260;27.812;2023-01-05T12:29:39;63.30;;;38.20;;
10114;SDS011;5097;43.260;27.812;2023-01-05T12:33:53;48.63;;;31.17;;
10114;SDS011;5097;43.260;27.812;2023-01-05T12:38:03;32.17;;;22.00;;
10114;SDS011;5097;43.260;27.812;2023-01-05T12:41:57;26.50;;;19.33;;
10114;SDS011;5097;43.260;27.812;2023-01-05T12:45:50;27.20;;;21.30;;
10114;SDS011;5097;43.260;27.812;2023-01-05T12:49:49;27.40;;;20.63;;
10114;SDS011;5097;43.260;27.812;2023-01-05T12:53:38;29.80;;;21.07;;
10114;SDS011;5097;43.260;27.812;2023-01-05T12:57:28;81.83;;;49.70;;
10114;SDS011;5097;43.260;27.812;2023-01-05T13:01:15;37.10;;;26.07;;
10114;SDS011;5097;43.260;27.812;2023-01-05T13:05:08;31.73;;;24.03;;
10114;SDS011;5097;43.260;27.812;2023-01-05T13:09:00;34.13;;;24.43;;
10114;SDS011;5097;43.260;27.812;2023-01-05T13:12:46;24.13;;;19.37;;
10114;SDS011;5097;43.260;27.812;2023-01-05T13:16:31;23.30;;;18.33;;
10114;SDS011;5097;43.260;27.812;2023-01-05T13:20:24;25.20;;;19.60;;
10114;SDS011;5097;43.260;27.812;2023-01-05T13:24:10;29.73;;;22.47;;
10114;SDS011;5097;43.260;27.812;2023-01-05T13:27:59;26.73;;;19.20;;
10114;SDS011;5097;43.260;27.812;2023-01-05T13:31:48;17.50;;;14.37;;
10114;SDS011;5097;43.260;27.812;2023-01-05T13:35:45;19.00;;;14.83;;
10114;SDS011;5097;43.260;27.812;2023-01-05T13:39:43;19.73;;;13.03;;
10114;SDS011;5097;43.260;27.812;2023-01-05T13:52:07;29.00;;;21.50;;
10114;SDS011;5097;43.260;27.812;2023-01-05T13:56:00;23.73;;;19.10;;
10114;SDS011;5097;43.260;27.812;2023-01-05T13:59:50;20.53;;;16.27;;
10114;SDS011;5097;43.260;27.812;2023-01-05T14:03:36;21.43;;;17.57;;
10114;SDS011;5097;43.260;27.812;2023-01-05T14:07:20;20.57;;;16.90;;
10114;SDS011;5097;43.260;27.812;2023-01-05T14:11:07;20.10;;;17.23;;
10114;SDS011;5097;43.260;27.812;2023-01-05T14:19:49;24.43;;;17.73;;
10114;SDS011;5097;43.260;27.812;2023-01-05T14:23:57;23.93;;;19.30;;
10114;SDS011;5097;43.260;27.812;2023-01-05T14:28:14;28.33;;;20.97;;
10114;SDS011;5097;43.260;27.812;2023-01-05T14:31:50;23.73;;;18.73;;
10114;SDS011;5097;43.260;27.812;2023-01-05T14:35:35;26.50;;;19.47;;
10114;SDS011;5097;43.260;27.812;2023-01-05T14:39:23;25.97;;;18.33;;
10114;SDS011;5097;43.260;27.812;2023-01-05T14:43:28;26.07;;;18.90;;
10114;SDS011;5097;43.260;27.812;2023-01-05T14:47:13;33.93;;;22.90;;
10114;SDS011;5097;43.260;27.812;2023-01-05T14:51:18;47.80;;;29.20;;
10114;SDS011;5097;43.260;27.812;2023-01-05T14:55:08;39.07;;;27.73;;
10114;SDS011;5097;43.260;27.812;2023-01-05T14:59:08;34.73;;;26.87;;
10114;SDS011;5097;43.260;27.812;2023-01-05T15:02:59;49.43;;;32.00;;
10114;SDS011;5097;43.260;27.812;2023-01-05T15:06:50;31.57;;;24.50;;
10114;SDS011;5097;43.260;27.812;2023-01-05T15:10:57;35.53;;;28.20;;
10114;SDS011;5097;43.260;27.812;2023-01-05T15:19:11;35.90;;;27.50;;
10114;SDS011;5097;43.260;27.812;2023-01-05T15:23:10;70.97;;;45.00;;
10114;SDS011;5097;43.260;27.812;2023-01-05T15:27:29;96.77;;;58.23;;
10114;SDS011;5097;43.260;27.812;2023-01-05T15:31:37;62.00;;;46.40;;
10114;SDS011;5097;43.260;27.812;2023-01-05T15:35:27;47.67;;;29.43;;
10114;SDS011;5097;43.260;27.812;2023-01-05T15:39:20;41.93;;;26.60;;
10114;SDS011;5097;43.260;27.812;2023-01-05T15:43:12;46.40;;;31.43;;
10114;SDS011;5097;43.260;27.812;2023-01-05T15:46:57;56.10;;;30.80;;
10114;SDS011;5097;43.260;27.812;2023-01-05T15:50:42;58.33;;;30.67;;
10114;SDS011;5097;43.260;27.812;2023-01-05T15:54:32;45.13;;;28.90;;
10114;SDS011;5097;43.260;27.812;2023-01-05T15:58:15;36.83;;;23.17;;
10114;SDS011;5097;43.260;27.812;2023-01-05T16:02:14;47.13;;;23.50;;
10114;SDS011;5097;43.260;27.812;2023-01-05T16:06:04;68.20;;;35.43;;
10114;SDS011;5097;43.260;27.812;2023-01-05T16:09:48;67.80;;;31.17;;
10114;SDS011;5097;43.260;27.812;2023-01-05T16:13:36;55.63;;;27.23;;
10114;SDS011;5097;43.260;27.812;2023-01-05T16:17:21;56.03;;;17.23;;
10114;SDS011;5097;43.260;27.812;2023-01-05T16:21:06;40.73;;;19.37;;
10114;SDS011;5097;43.260;27.812;2023-01-05T16:24:55;29.67;;;14.90;;
10114;SDS011;5097;43.260;27.812;2023-01-05T16:28:41;25.93;;;16.43;;
10114;SDS011;5097;43.260;27.812;2023-01-05T16:32:27;35.93;;;19.80;;
10114;SDS011;5097;43.260;27.812;2023-01-05T16:36:16;76.70;;;43.27;;
10114;SDS011;5097;43.260;27.812;2023-01-05T16:40:00;29.57;;;14.67;;
10114;SDS011;5097;43.260;27.812;2023-01-05T16:44:11;23.03;;;13.77;;
10114;SDS011;5097;43.260;27.812;2023-01-05T16:48:20;18.10;;;13.07;;
10114;SDS011;5097;43.260;27.812;2023-01-05T16:52:24;17.93;;;12.67;;
10114;SDS011;5097;43.260;27.812;2023-01-05T16:56:16;25.57;;;12.63;;
10114;SDS011;5097;43.260;27.812;2023-01-05T17:04:18;25.47;;;11.47;;
10114;SDS011;5097;43.260;27.812;2023-01-05T17:08:02;32.93;;;22.03;;
10114;SDS011;5097;43.260;27.812;2023-01-05T17:11:49;17.87;;;15.60;;
10114;SDS011;5097;43.260;27.812;2023-01-05T17:15:38;16.57;;;13.37;;
10114;SDS011;5097;43.260;27.812;2023-01-05T17:19:25;17.43;;;11.30;;
10114;SDS011;5097;43.260;27.812;2023-01-05T17:23:10;15.23;;;11.53;;
10114;SDS011;5097;43.260;27.812;2023-01-05T17:26:56;22.23;;;15.67;;
10114;SDS011;5097;43.260;27.812;2023-01-05T17:30:38;15.30;;;10.00;;
10114;SDS011;5097;43.260;27.812;2023-01-05T17:34:22;29.67;;;23.17;;
10114;SDS011;5097;43.260;27.812;2023-01-05T17:38:04;20.00;;;9.37;;
10114;SDS011;5097;43.260;27.812;2023-01-05T17:41:47;46.37;;;26.53;;
10114;SDS011;5097;43.260;27.812;2023-01-05T17:45:29;35.90;;;19.27;;
10114;SDS011;5097;43.260;27.812;2023-01-05T17:49:15;14.13;;;8.63;;
10114;SDS011;5097;43.260;27.812;2023-01-05T17:53:01;10.13;;;8.53;;
10114;SDS011;5097;43.260;27.812;2023-01-05T17:56:43;14.37;;;10.63;;
10114;SDS011;5097;43.260;27.812;2023-01-05T18:00:27;25.83;;;19.17;;
10114;SDS011;5097;43.260;27.812;2023-01-05T18:04:09;24.03;;;16.40;;
10114;SDS011;5097;43.260;27.812;2023-01-05T18:07:53;17.60;;;11.30;;
10114;SDS011;5097;43.260;27.812;2023-01-05T18:11:36;22.60;;;17.33;;
10114;SDS011;5097;43.260;27.812;2023-01-05T18:15:18;12.80;;;9.43;;
10114;SDS011;5097;43.260;27.812;2023-01-05T18:19:01;19.83;;;16.60;;
10114;SDS011;5097;43.260;27.812;2023-01-05T18:22:44;14.87;;;12.50;;
10114;SDS011;5097;43.260;27.812;2023-01-05T18:26:28;13.97;;;11.07;;
10114;SDS011;5097;43.260;27.812;2023-01-05T18:30:10;14.43;;;10.97;;
10114;SDS011;5097;43.260;27.812;2023-01-05T18:33:54;21.30;;;17.20;;
10114;SDS011;5097;43.260;27.812;2023-01-05T18:37:36;17.40;;;10.53;;
10114;SDS011;5097;43.260;27.812;2023-01-05T18:41:22;10.50;;;9.17;;
10114;SDS011;5097;43.260;27.812;2023-01-05T18:45:05;13.90;;;11.17;;
10114;SDS011;5097;43.260;27.812;2023-01-05T18:48:49;16.00;;;12.80;;
10114;SDS011;5097;43.260;27.812;2023-01-05T18:52:34;12.10;;;9.17;;
10114;SDS011;5097;43.260;27.812;2023-01-05T18:56:18;11.27;;;9.07;;
10114;SDS011;5097;43.260;27.812;2023-01-05T19:00:03;19.30;;;11.00;;
10114;SDS011;5097;43.260;27.812;2023-01-05T19:03:50;16.97;;;13.03;;
10114;SDS011;5097;43.260;27.812;2023-01-05T19:07:33;33.80;;;11.37;;
10114;SDS011;5097;43.260;27.812;2023-01-05T19:11:17;18.07;;;12.87;;
10114;SDS011;5097;43.260;27.812;2023-01-05T19:15:18;23.87;;;14.20;;
10114;SDS011;5097;43.260;27.812;2023-01-05T19:18:02;12.77;;;10.17;;
10114;SDS011;5097;43.260;27.812;2023-01-05T19:20:53;13.27;;;9.97;;
10114;SDS011;5097;43.260;27.812;2023-01-05T19:23:38;13.67;;;11.20;;
10114;SDS011;5097;43.260;27.812;2023-01-05T19:26:22;16.27;;;12.80;;
10114;SDS011;5097;43.260;27.812;2023-01-05T19:29:09;16.07;;;9.87;;
10114;SDS011;5097;43.260;27.812;2023-01-05T19:31:55;12.60;;;10.23;;
10114;SDS011;5097;43.260;27.812;2023-01-05T19:34:39;14.70;;;13.13;;
10114;SDS011;5097;43.260;27.812;2023-01-05T19:37:24;9.50;;;8.00;;
10114;SDS011;5097;43.260;27.812;2023-01-05T19:40:08;11.27;;;6.37;;
10114;SDS011;5097;43.260;27.812;2023-01-05T19:42:54;14.50;;;9.73;;
10114;SDS011;5097;43.260;27.812;2023-01-05T19:45:38;38.60;;;21.20;;
10114;SDS011;5097;43.260;27.812;2023-01-05T19:48:23;42.70;;;19.87;;
10114;SDS011;5097;43.260;27.812;2023-01-05T19:51:07;15.60;;;12.10;;
10114;SDS011;5097;43.260;27.812;2023-01-05T19:53:53;19.47;;;13.40;;
10114;SDS011;5097;43.260;27.812;2023-01-05T19:56:38;22.50;;;13.33;;
10114;SDS011;5097;43.260;27.812;2023-01-05T19:59:24;29.33;;;20.03;;
10114;SDS011;5097;43.260;27.812;2023-01-05T20:02:14;24.13;;;16.43;;
10114;SDS011;5097;43.260;27.812;2023-01-05T20:04:59;18.97;;;12.03;;
10114;SDS011;5097;43.260;27.812;2023-01-05T20:07:44;21.23;;;11.67;;